Time;durP1;ratioP1;P1;durP2;ratioP2;P2;SDS_P1;SDS_P2;PMS_P1;PMS_P2;Temp;Humidity;BMP_temperature;BMP_pressure;BME280_temperature;BME280_humidity;BME280_pressure;Samples;Min_cycle;Max_cycle;Signal;HPM_P1;HPM_P2
2020/12/03 00:00:47;;;;;;;27.73;16.02;;;;;;;3.08;67.24;101661.75;1768465;79;21554;-60
2020/12/03 00:03:24;;;;;;;27.48;15.98;;;;;;;3.00;67.25;101665.85;1768592;79;21219;-60
2020/12/03 00:06:18;;;;;;;25.90;13.80;;;;;;;2.98;67.24;101667.65;1769707;79;21824;-61
2020/12/03 00:08:58;;;;;;;26.57;14.95;;;;;;;2.93;67.25;101669.52;1744924;79;21667;-60
2020/12/03 00:11:31;;;;;;;24.92;14.07;;;;;;;2.91;67.20;101666.12;1767102;79;21377;-59
2020/12/03 00:13:59;;;;;;;25.57;14.28;;;;;;;2.99;67.00;101664.13;1768350;79;22728;-60
2020/12/03 00:16:32;;;;;;;29.50;14.13;;;;;;;3.06;66.81;101666.98;1767286;79;21191;-60
2020/12/03 00:19:01;;;;;;;25.40;15.10;;;;;;;3.09;66.79;101660.41;1766544;79;21184;-60
2020/12/03 00:21:48;;;;;;;24.40;15.25;;;;;;;3.10;66.81;101665.99;1767303;79;21179;-60
2020/12/03 00:24:20;;;;;;;26.02;14.83;;;;;;;3.10;66.79;101670.34;1767269;79;21548;-60
2020/12/03 00:26:48;;;;;;;32.33;16.12;;;;;;;3.06;66.70;101663.52;1771208;79;22124;-60
2020/12/03 00:29:15;;;;;;;27.65;15.75;;;;;;;2.99;66.80;101665.43;1766221;79;21557;-60
2020/12/03 00:31:44;;;;;;;26.15;15.48;;;;;;;2.96;66.83;101666.39;1767643;79;21235;-60
2020/12/03 00:34:11;;;;;;;28.50;16.40;;;;;;;2.92;66.83;101663.91;1766380;79;21216;-59
2020/12/03 00:36:39;;;;;;;26.23;16.90;;;;;;;2.86;66.95;101661.47;1768803;79;22499;-60
2020/12/03 00:39:09;;;;;;;29.65;16.52;;;;;;;2.85;66.99;101663.22;1768286;79;21267;-60
2020/12/03 00:41:36;;;;;;;29.75;16.45;;;;;;;2.82;67.12;101662.00;1766740;79;21011;-60
2020/12/03 00:44:05;;;;;;;34.83;16.12;;;;;;;2.79;67.15;101657.75;1767641;79;21146;-60
2020/12/03 00:46:34;;;;;;;25.35;14.70;;;;;;;2.80;67.25;101659.89;1766461;79;21850;-60
2020/12/03 00:49:02;;;;;;;32.85;17.00;;;;;;;2.77;67.33;101655.65;1758921;79;21666;-60
2020/12/03 00:51:31;;;;;;;26.73;14.60;;;;;;;2.84;67.17;101652.86;1760854;79;21264;-60
2020/12/03 00:53:59;;;;;;;26.82;13.62;;;;;;;2.92;66.94;101658.70;1761510;79;21594;-60
2020/12/03 00:56:27;;;;;;;26.15;14.65;;;;;;;2.96;66.93;101654.69;1700201;82;21199;-60
2020/12/03 00:58:55;;;;;;;27.07;16.05;;;;;;;3.00;66.80;101654.15;1759686;79;21169;-60
2020/12/03 01:01:23;;;;;;;35.98;18.00;;;;;;;2.99;66.78;101657.63;1761713;79;21165;-60
2020/12/03 01:03:51;;;;;;;39.35;17.92;;;;;;;2.96;66.76;101652.55;1760822;79;21457;-60
2020/12/03 01:06:19;;;;;;;28.40;14.40;;;;;;;2.95;66.78;101654.73;1698673;82;21235;-60
2020/12/03 01:08:47;;;;;;;26.33;16.15;;;;;;;2.91;66.74;101647.46;1760275;80;21189;-60
2020/12/03 01:11:20;;;;;;;26.70;15.55;;;;;;;2.88;66.79;101649.30;1760840;79;21605;-60
2020/12/03 01:13:48;;;;;;;27.35;15.40;;;;;;;2.86;66.83;101645.44;1742772;80;21176;-60
2020/12/03 01:16:19;;;;;;;34.10;16.70;;;;;;;2.83;66.84;101644.67;1760039;80;21366;-60
2020/12/03 01:18:48;;;;;;;29.85;17.20;;;;;;;2.81;66.77;101639.94;1760691;79;22010;-60
2020/12/03 01:21:20;;;;;;;27.62;15.23;;;;;;;2.75;66.92;101643.57;1760540;79;21176;-60
2020/12/03 01:23:50;;;;;;;34.10;17.40;;;;;;;2.73;67.00;101645.37;1759571;80;21224;-60
2020/12/03 01:26:19;;;;;;;34.45;16.15;;;;;;;2.69;67.04;101638.53;1760832;80;21647;-60
2020/12/03 01:28:47;;;;;;;30.52;17.50;;;;;;;2.67;67.14;101645.52;1761504;80;21489;-60
2020/12/03 01:31:14;;;;;;;28.17;15.10;;;;;;;2.64;67.21;101637.37;1760320;80;21194;-60
2020/12/03 01:33:43;;;;;;;29.60;16.15;;;;;;;2.64;67.31;101639.10;1761515;79;21196;-60
2020/12/03 01:36:13;;;;;;;26.97;13.38;;;;;;;2.72;67.25;101639.75;1760250;80;21200;-61
2020/12/03 01:38:44;;;;;;;28.50;14.87;;;;;;;2.82;67.10;101641.20;1760979;80;21530;-61
2020/12/03 01:41:11;;;;;;;26.05;15.50;;;;;;;2.85;66.89;101635.92;1759642;80;22061;-60
2020/12/03 01:43:42;;;;;;;28.02;16.05;;;;;;;2.83;66.99;101637.72;1760483;79;21235;-60
2020/12/03 01:46:10;;;;;;;31.07;16.85;;;;;;;2.83;67.00;101632.52;1759373;80;21164;-60
2020/12/03 01:48:54;;;;;;;29.25;16.77;;;;;;;2.81;66.95;101634.74;1765430;80;21495;-60
2020/12/03 01:51:38;;;;;;;32.33;15.78;;;;;;;2.75;67.03;101628.82;1767738;79;21196;-60
2020/12/03 01:54:09;;;;;;;34.35;18.32;;;;;;;2.70;67.13;101630.70;1768128;79;21221;-60
2020/12/03 01:57:05;;;;;;;31.12;16.02;;;;;;;2.68;67.16;101629.05;1767994;80;21663;-60
2020/12/03 01:59:41;;;;;;;30.27;16.97;;;;;;;2.66;67.23;101625.19;1744092;80;21188;-59
2020/12/03 02:02:11;;;;;;;34.60;16.70;;;;;;;2.65;67.28;101624.77;1766544;79;21239;-59
2020/12/03 02:04:39;;;;;;;35.80;17.45;;;;;;;2.63;67.36;101629.16;1766675;79;21567;-60
2020/12/03 02:07:11;;;;;;;32.23;14.90;;;;;;;2.66;67.38;101628.25;1768838;79;21210;-60
2020/12/03 02:09:40;;;;;;;28.12;17.30;;;;;;;2.66;67.45;101627.79;1768011;79;21902;-60
2020/12/03 02:12:09;;;;;;;29.63;14.53;;;;;;;2.67;67.41;101626.03;1768849;79;21506;-60
2020/12/03 02:14:36;;;;;;;29.92;14.95;;;;;;;2.66;67.42;101619.15;1768604;80;21501;-60
2020/12/03 02:17:04;;;;;;;23.60;14.73;;;;;;;2.70;67.33;101618.16;1768999;79;21113;-60
2020/12/03 02:19:32;;;;;;;26.85;14.98;;;;;;;2.77;67.25;101620.98;1769464;79;22187;-59
2020/12/03 02:22:06;;;;;;;25.62;14.23;;;;;;;2.83;67.14;101616.92;1767749;79;21483;-60
2020/12/03 02:24:36;;;;;;;30.62;14.70;;;;;;;2.88;67.04;101629.80;1767521;79;21464;-60
2020/12/03 02:27:06;;;;;;;26.23;14.58;;;;;;;2.89;67.01;101630.19;1768291;79;21677;-60
2020/12/03 02:29:34;;;;;;;27.67;15.75;;;;;;;2.87;66.96;101629.39;1707759;83;21209;-60
2020/12/03 02:32:04;;;;;;;31.10;14.78;;;;;;;2.84;66.91;101630.77;1769353;79;21165;-60
2020/12/03 02:34:32;;;;;;;32.33;15.30;;;;;;;2.80;66.98;101623.50;1768248;79;21766;-60
2020/12/03 02:37:00;;;;;;;34.00;15.60;;;;;;;2.76;66.90;101626.64;1768700;79;21216;-60
2020/12/03 02:39:30;;;;;;;27.15;16.10;;;;;;;2.71;66.95;101627.21;1769344;79;21529;-60
2020/12/03 02:41:58;;;;;;;30.55;16.25;;;;;;;2.65;67.11;101623.92;1767792;79;21604;-60
2020/12/03 02:44:26;;;;;;;36.90;16.10;;;;;;;2.62;67.12;101626.15;1767966;79;21384;-60
2020/12/03 02:46:54;;;;;;;29.48;16.00;;;;;;;2.57;67.17;101629.31;1768288;79;21630;-60
2020/12/03 02:49:22;;;;;;;32.55;17.37;;;;;;;2.56;67.24;101626.33;1759340;79;21176;-59
2020/12/03 02:51:51;;;;;;;27.60;15.23;;;;;;;2.57;67.30;101632.80;1760970;79;21234;-60
2020/12/03 02:54:18;;;;;;;27.10;16.02;;;;;;;2.56;67.21;101630.23;1760132;80;21192;-59
2020/12/03 02:56:47;;;;;;;33.08;17.35;;;;;;;2.55;67.22;101629.81;1760496;79;21206;-60
2020/12/03 02:59:14;;;;;;;34.88;16.32;;;;;;;2.54;67.29;101630.69;1760093;79;21176;-60
2020/12/03 03:01:42;;;;;;;30.23;15.43;;;;;;;2.56;67.22;101619.84;1760254;79;21226;-59
2020/12/03 03:04:11;;;;;;;30.27;16.60;;;;;;;2.56;67.28;101631.53;1760628;79;21180;-59
2020/12/03 03:06:39;;;;;;;28.38;15.65;;;;;;;2.58;67.29;101629.73;1760057;79;21608;-60
2020/12/03 03:09:06;;;;;;;26.00;16.57;;;;;;;2.54;67.24;101635.47;1721904;81;21268;-59
2020/12/03 03:11:35;;;;;;;34.55;15.32;;;;;;;2.58;67.16;101634.94;1699785;82;21216;-59
2020/12/03 03:14:03;;;;;;;29.65;14.75;;;;;;;2.67;66.94;101633.37;1760995;79;21635;-59
2020/12/03 03:16:31;;;;;;;26.60;15.43;;;;;;;2.75;66.80;101627.98;1761743;79;21109;-60
2020/12/03 03:18:58;;;;;;;24.75;13.58;;;;;;;2.83;66.86;101622.58;1760422;79;21573;-60
2020/12/03 03:21:26;;;;;;;39.10;16.70;;;;;;;2.86;66.83;101627.24;1761398;79;21367;-59
2020/12/03 03:23:54;;;;;;;28.07;17.67;;;;;;;2.89;66.70;101619.36;1759985;79;21058;-59
2020/12/03 03:26:21;;;;;;;31.50;16.90;;;;;;;2.89;66.61;101614.16;1761180;79;21588;-60
2020/12/03 03:28:49;;;;;;;31.00;16.07;;;;;;;2.89;66.56;101617.19;1759051;79;21493;-59
2020/12/03 03:31:18;;;;;;;28.85;15.40;;;;;;;2.85;66.49;101615.58;1760536;79;21279;-59
2020/12/03 03:33:45;;;;;;;28.32;16.07;;;;;;;2.79;66.64;101620.48;1760599;79;21781;-59
2020/12/03 03:36:13;;;;;;;28.17;14.43;;;;;;;2.72;66.76;101613.76;1762124;79;21188;-59
2020/12/03 03:38:41;;;;;;;29.70;14.98;;;;;;;2.70;66.89;101618.16;1759235;80;22073;-59
2020/12/03 03:41:08;;;;;;;28.40;15.00;;;;;;;2.67;67.04;101619.08;1760420;79;22064;-59
2020/12/03 03:43:36;;;;;;;29.55;12.82;;;;;;;2.70;67.04;101617.70;1760767;80;21193;-59
2020/12/03 03:46:03;;;;;;;19.27;12.53;;;;;;;2.79;66.84;101614.86;1760703;79;21633;-60
2020/12/03 03:48:31;;;;;;;27.52;12.60;;;;;;;2.84;66.78;101614.74;1740880;79;21710;-59
2020/12/03 03:50:58;;;;;;;24.67;13.58;;;;;;;2.85;66.83;101617.73;1721966;81;21164;-59
2020/12/03 03:53:26;;;;;;;21.33;12.47;;;;;;;2.83;66.92;101609.58;1720988;81;21210;-60
2020/12/03 03:55:53;;;;;;;24.15;13.58;;;;;;;2.82;66.92;101611.77;1721591;81;21231;-60
2020/12/03 03:58:20;;;;;;;21.42;12.20;;;;;;;2.79;66.94;101616.16;1721829;81;22142;-60
2020/12/03 04:00:48;;;;;;;27.02;12.58;;;;;;;2.74;66.91;101614.14;1722666;81;21542;-60
2020/12/03 04:03:19;;;;;;;18.20;10.30;;;;;;;2.71;67.02;101614.22;1722176;81;21189;-59
2020/12/03 04:05:50;;;;;;;24.15;13.83;;;;;;;2.67;67.08;101615.18;1720733;81;21716;-60
2020/12/03 04:08:18;;;;;;;22.82;12.43;;;;;;;2.68;67.12;101618.66;1721942;81;21726;-60
2020/12/03 04:10:47;;;;;;;23.52;12.00;;;;;;;2.68;67.11;101608.26;1721264;81;21452;-63
2020/12/03 04:13:14;;;;;;;23.57;12.13;;;;;;;2.69;67.18;101616.44;1721017;80;21195;-62
2020/12/03 04:15:42;;;;;;;20.00;12.20;;;;;;;2.67;67.21;101611.73;1720788;81;21223;-61
2020/12/03 04:18:09;;;;;;;24.82;12.07;;;;;;;2.66;67.35;101619.15;1720834;81;21200;-61
2020/12/03 04:20:38;;;;;;;17.80;10.80;;;;;;;2.62;67.31;101607.95;1721240;81;21191;-61
2020/12/03 04:23:06;;;;;;;21.57;11.85;;;;;;;2.59;67.41;101609.36;1720497;81;21235;-62
2020/12/03 04:25:33;;;;;;;19.25;10.98;;;;;;;2.65;67.37;101607.88;1720165;81;21875;-62
2020/12/03 04:28:01;;;;;;;17.35;10.13;;;;;;;2.75;67.19;101604.13;1720811;81;21674;-62
2020/12/03 04:30:28;;;;;;;17.10;9.45;;;;;;;2.83;67.06;101607.83;1721041;81;21604;-62
2020/12/03 04:32:56;;;;;;;21.10;11.33;;;;;;;2.85;67.07;101608.62;1720391;81;21180;-62
2020/12/03 04:35:23;;;;;;;22.35;12.03;;;;;;;2.85;67.23;101606.03;1697003;81;21312;-61
2020/12/03 04:37:51;;;;;;;17.55;11.25;;;;;;;2.85;67.29;101606.48;1720320;81;21231;-62
2020/12/03 04:40:24;;;;;;;24.92;11.22;;;;;;;2.86;67.29;101604.27;1719945;81;21215;-62
2020/12/03 04:42:52;;;;;;;22.65;11.90;;;;;;;2.87;67.24;101608.12;1719023;81;22829;-62
2020/12/03 04:45:49;;;;;;;21.50;10.38;;;;;;;2.88;67.11;101608.55;1702140;83;21235;-62
2020/12/03 04:48:37;;;;;;;22.15;11.75;;;;;;;2.85;67.09;101615.12;1610691;86;21776;-62
2020/12/03 04:51:32;;;;;;;20.08;11.00;;;;;;;2.78;67.15;101614.45;1626636;85;21715;-62
2020/12/03 04:54:21;;;;;;;26.25;12.25;;;;;;;2.74;67.34;101622.36;1628722;85;21265;-62
2020/12/03 04:57:16;;;;;;;19.70;11.30;;;;;;;2.68;67.42;101628.59;1635590;85;21240;-61
2020/12/03 05:00:19;;;;;;;23.73;10.98;;;;;;;2.62;67.59;101618.35;1635745;85;21615;-62
2020/12/03 05:03:22;;;;;;;19.75;11.05;;;;;;;2.64;67.60;101623.51;1630659;85;22337;-59
2020/12/03 05:06:02;;;;;;;15.72;9.20;;;;;;;2.72;67.50;101623.73;1629364;85;21217;-63
2020/12/03 05:08:38;;;;;;;23.70;11.45;;;;;;;2.83;67.41;101623.87;1633092;85;21218;-62
2020/12/03 05:11:26;;;;;;;19.07;11.08;;;;;;;2.90;67.34;101621.50;1632146;85;22477;-65
2020/12/03 05:14:00;;;;;;;23.90;11.65;;;;;;;2.90;67.33;101618.91;1633051;85;21194;-63
2020/12/03 05:16:54;;;;;;;24.25;11.70;;;;;;;2.88;67.32;101618.10;1630859;85;21410;-64
2020/12/03 05:19:43;;;;;;;29.60;13.38;;;;;;;2.88;67.31;101625.44;1632289;85;21300;-63
2020/12/03 05:22:19;;;;;;;25.20;12.28;;;;;;;2.84;67.31;101625.14;1629187;85;22409;-62
2020/12/03 05:24:47;;;;;;;27.98;15.70;;;;;;;2.81;67.33;101620.02;1627573;85;21253;-63
2020/12/03 05:27:25;;;;;;;24.92;12.53;;;;;;;2.78;67.42;101624.00;1627469;85;21049;-63
2020/12/03 05:29:59;;;;;;;20.32;12.80;;;;;;;2.75;67.49;101623.63;1625241;85;21328;-61
2020/12/03 05:32:27;;;;;;;20.43;11.88;;;;;;;2.73;67.55;101625.42;1629509;85;21260;-61
2020/12/03 05:34:55;;;;;;;25.90;13.55;;;;;;;2.70;67.58;101629.85;1630452;85;21232;-63
2020/12/03 05:37:26;;;;;;;29.35;12.88;;;;;;;2.70;67.71;101629.39;1635235;86;21697;-63
2020/12/03 05:39:56;;;;;;;23.70;12.50;;;;;;;2.67;67.75;101634.67;1667468;83;21156;-63
2020/12/03 05:42:33;;;;;;;24.02;12.85;;;;;;;2.71;67.64;101637.61;1667057;83;22201;-63
2020/12/03 05:45:10;;;;;;;25.68;11.73;;;;;;;2.80;67.46;101635.20;1648154;83;22221;-59
2020/12/03 05:47:43;;;;;;;17.42;11.65;;;;;;;2.90;67.42;101631.91;1662029;83;22155;-61
2020/12/03 05:50:17;;;;;;;25.68;12.15;;;;;;;2.95;67.35;101632.17;1656980;84;21255;-63
2020/12/03 05:53:19;;;;;;;24.65;13.05;;;;;;;2.95;67.36;101637.83;1664448;84;21219;-62
2020/12/03 05:55:49;;;;;;;24.00;13.18;;;;;;;2.95;67.45;101637.37;1661162;84;21379;-62
2020/12/03 05:58:22;;;;;;;30.10;14.85;;;;;;;2.90;67.42;101634.50;1660672;84;21510;-62
2020/12/03 06:00:50;;;;;;;27.75;13.65;;;;;;;2.83;67.52;101641.62;1655971;84;22660;-62
2020/12/03 06:03:37;;;;;;;33.60;13.95;;;;;;;2.78;67.66;101640.89;1657238;84;21207;-61
2020/12/03 06:06:45;;;;;;;23.87;13.25;;;;;;;2.75;67.68;101643.12;1624388;86;21199;-61
2020/12/03 06:09:37;;;;;;;28.92;13.40;;;;;;;2.71;67.85;101634.17;1660119;84;21266;-60
2020/12/03 06:13:01;;;;;;;30.40;14.13;;;;;;;2.66;68.07;101639.48;1660521;84;21848;-61
2020/12/03 06:15:59;;;;;;;22.30;12.95;;;;;;;2.66;68.13;101634.28;1661269;84;21255;-61
2020/12/03 06:19:05;;;;;;;25.80;13.58;;;;;;;2.80;67.95;101641.70;1660082;84;21251;-59
2020/12/03 06:22:05;;;;;;;20.88;12.82;;;;;;;2.89;67.78;101641.89;1657088;84;21196;-65
2020/12/03 06:25:19;;;;;;;24.70;11.68;;;;;;;2.95;67.77;101643.87;1668462;84;22506;-59
2020/12/03 06:28:34;;;;;;;26.95;14.05;;;;;;;2.96;67.77;101639.55;1644083;85;21191;-60
2020/12/03 06:31:35;;;;;;;25.20;13.90;;;;;;;2.90;67.81;101646.20;1639487;84;21197;-59
2020/12/03 06:34:25;;;;;;;26.33;13.78;;;;;;;2.85;67.92;101642.88;1686835;83;21559;-60
2020/12/03 06:36:59;;;;;;;25.57;13.78;;;;;;;2.82;67.93;101637.76;1680549;83;21211;-59
2020/12/03 06:39:49;;;;;;;32.13;14.03;;;;;;;2.78;68.00;101635.23;1669164;83;22490;-60
2020/12/03 06:42:35;;;;;;;20.57;12.73;;;;;;;2.75;67.94;101639.67;1687748;83;21205;-60
2020/12/03 06:45:20;;;;;;;32.78;15.40;;;;;;;2.71;67.97;101640.21;1688787;83;21159;-60
2020/12/03 06:48:11;;;;;;;30.65;15.40;;;;;;;2.66;68.05;101635.58;1653805;84;21614;-62
2020/12/03 06:50:56;;;;;;;21.62;12.93;;;;;;;2.66;68.10;101630.84;1688388;83;21175;-62
2020/12/03 06:53:55;;;;;;;24.32;13.60;;;;;;;2.65;68.15;101634.33;1671786;83;22037;-61
2020/12/03 06:56:41;;;;;;;24.00;11.68;;;;;;;2.77;67.98;101638.75;1689290;83;21689;-58
2020/12/03 06:59:41;;;;;;;27.60;13.72;;;;;;;2.87;67.61;101641.92;1654379;84;21628;-59
2020/12/03 07:02:17;;;;;;;29.40;13.65;;;;;;;2.90;67.54;101651.41;1684520;83;22701;-60
2020/12/03 07:05:18;;;;;;;28.12;14.43;;;;;;;2.89;67.67;101645.36;1685969;81;21243;-58
2020/12/03 07:14:27;;;;;;;36.30;17.25;;;;;;;2.82;67.59;101645.10;1816049;77;22900;-60
2020/12/03 07:17:10;;;;;;;28.62;16.77;;;;;;;2.73;67.71;101651.41;1795284;78;21311;-60
2020/12/03 07:20:04;;;;;;;30.25;17.75;;;;;;;2.68;67.73;101653.28;1792577;78;21230;-60
2020/12/03 07:22:42;;;;;;;39.50;17.07;;;;;;;2.63;67.84;101655.16;1789985;78;21731;-61
2020/12/03 07:25:09;;;;;;;30.17;17.42;;;;;;;2.57;67.97;101652.28;1772327;78;21224;-59
2020/12/03 07:28:10;;;;;;;39.33;17.05;;;;;;;2.58;67.86;101655.72;1791930;78;21191;-58
2020/12/03 07:30:48;;;;;;;34.58;17.20;;;;;;;2.67;67.81;101660.66;1793107;78;21139;-58
2020/12/03 07:33:30;;;;;;;25.72;15.18;;;;;;;2.76;67.48;101655.23;1794496;78;22282;-59
2020/12/03 07:36:26;;;;;;;31.85;16.15;;;;;;;2.80;67.39;101657.30;1753850;78;22676;-60
2020/12/03 07:39:10;;;;;;;33.05;17.10;;;;;;;2.76;67.66;101659.12;1791368;78;21816;-61
2020/12/03 07:41:49;;;;;;;35.55;17.62;;;;;;;2.75;67.64;101658.71;1792958;78;21080;-59
2020/12/03 07:44:28;;;;;;;30.62;18.02;;;;;;;2.75;67.55;101660.02;1791149;78;21520;-59
2020/12/03 07:47:19;;;;;;;36.03;17.25;;;;;;;2.74;67.58;101668.72;1792082;78;21239;-59
2020/12/03 07:49:49;;;;;;;32.30;16.90;;;;;;;2.70;67.60;101664.48;1730639;80;21251;-59
2020/12/03 07:52:29;;;;;;;33.48;17.07;;;;;;;2.65;67.77;101667.66;1728916;81;21633;-59
2020/12/03 07:55:25;;;;;;;34.90;18.15;;;;;;;2.65;67.85;101663.75;1728886;81;21198;-59
2020/12/03 07:57:57;;;;;;;26.30;14.93;;;;;;;2.65;67.86;101662.45;1724999;81;21230;-59
2020/12/03 08:00:44;;;;;;;32.75;15.48;;;;;;;2.67;67.93;101668.45;1730649;81;21221;-60
2020/12/03 08:03:46;;;;;;;27.45;14.60;;;;;;;2.81;67.76;101668.11;1731552;80;21158;-59
2020/12/03 08:06:32;;;;;;;24.82;14.05;;;;;;;2.94;67.45;101668.19;1711504;82;21175;-61
2020/12/03 08:09:06;;;;;;;30.02;14.33;;;;;;;3.02;67.29;101659.31;1714782;81;21199;-60
2020/12/03 08:12:02;;;;;;;26.80;15.40;;;;;;;3.02;67.24;101661.45;1731525;80;21113;-60
2020/12/03 08:14:44;;;;;;;35.48;15.63;;;;;;;3.00;67.25;101650.25;1716608;81;21442;-60
2020/12/03 08:17:21;;;;;;;30.02;14.45;;;;;;;2.98;67.21;101650.74;1712778;82;21583;-60
2020/12/03 08:20:06;;;;;;;27.70;13.90;;;;;;;2.91;67.39;101644.86;1713896;81;21251;-59
2020/12/03 08:22:41;;;;;;;22.55;13.03;;;;;;;2.91;67.46;101647.46;1714768;82;21144;-59
2020/12/03 08:25:25;;;;;;;28.02;16.85;;;;;;;2.91;67.49;101649.22;1711109;81;21226;-59
2020/12/03 08:28:02;;;;;;;27.17;14.90;;;;;;;2.92;67.34;101643.95;1715527;81;21553;-59
2020/12/03 08:30:37;;;;;;;27.42;15.20;;;;;;;2.91;67.25;101642.72;1730384;80;21565;-60
2020/12/03 08:33:11;;;;;;;26.87;15.60;;;;;;;2.88;67.31;101641.05;1730164;80;21453;-59
2020/12/03 08:35:40;;;;;;;28.83;15.60;;;;;;;2.85;67.33;101633.78;1730048;81;21207;-58
2020/12/03 08:38:08;;;;;;;22.98;13.48;;;;;;;2.84;67.37;101638.56;1730679;81;21202;-59
2020/12/03 08:40:38;;;;;;;30.25;15.48;;;;;;;2.94;67.21;101627.01;1728367;81;21226;-58
2020/12/03 08:46:09;;;;;;;24.52;13.18;;;;;;;3.14;66.88;101629.91;1789508;77;22745;-60
2020/12/03 08:48:37;;;;;;;27.55;14.60;;;;;;;3.11;66.93;101631.30;1766126;78;21216;-58
2020/12/03 08:51:08;;;;;;;28.23;14.63;;;;;;;3.11;66.97;101625.22;1764673;78;22575;-58
2020/12/03 08:53:37;;;;;;;24.45;14.28;;;;;;;3.11;67.00;101623.50;1762159;78;21737;-58
2020/12/03 08:56:19;;;;;;;20.37;13.20;;;;;;;3.11;67.02;101620.02;1764223;78;21219;-59
2020/12/03 08:59:13;;;;;;;21.50;12.70;;;;;;;3.09;66.97;101621.39;1757221;78;21227;-59
2020/12/03 09:01:51;;;;;;;33.63;15.28;;;;;;;3.02;67.04;101618.55;1764911;78;21592;-59
2020/12/03 09:04:23;;;;;;;22.52;13.45;;;;;;;2.95;67.12;101609.22;1766915;78;21213;-59
2020/12/03 09:06:52;;;;;;;26.82;13.78;;;;;;;2.93;67.15;101607.97;1710153;81;21187;-59
2020/12/03 09:09:23;;;;;;;23.65;13.68;;;;;;;2.91;67.28;101603.72;1704767;81;21185;-59
2020/12/03 09:11:51;;;;;;;24.07;11.40;;;;;;;2.88;67.33;101604.64;1717373;82;21172;-59
2020/12/03 09:14:19;;;;;;;21.87;12.95;;;;;;;2.91;67.32;101605.02;1716078;82;21523;-59
2020/12/03 09:16:49;;;;;;;25.35;11.93;;;;;;;3.00;67.19;101603.44;1719984;82;21640;-59
2020/12/03 09:19:25;;;;;;;19.92;11.80;;;;;;;3.07;67.15;101599.76;1718650;82;21133;-58
2020/12/03 09:21:53;;;;;;;22.90;12.58;;;;;;;3.12;67.10;101590.53;1718188;82;21109;-59
2020/12/03 09:24:22;;;;;;;23.32;12.80;;;;;;;3.14;67.20;101587.00;1699788;82;21276;-59
2020/12/03 09:26:52;;;;;;;25.60;13.48;;;;;;;3.16;67.09;101587.80;1719120;81;21167;-59
2020/12/03 09:29:20;;;;;;;25.72;14.60;;;;;;;3.13;67.04;101588.34;1716687;82;21378;-57
2020/12/03 09:32:12;;;;;;;23.95;12.68;;;;;;;3.08;67.18;101584.57;1714164;82;21239;-58
2020/12/03 09:34:40;;;;;;;23.75;13.98;;;;;;;3.05;67.24;101579.91;1639118;85;21227;-59
2020/12/03 09:37:07;;;;;;;21.20;13.65;;;;;;;3.03;67.42;101582.55;1637387;85;21451;-59
2020/12/03 09:39:35;;;;;;;28.55;14.28;;;;;;;3.02;67.41;101578.23;1638381;85;21212;-59
2020/12/03 09:42:04;;;;;;;26.75;15.65;;;;;;;3.02;67.34;101582.59;1641459;85;21593;-58
2020/12/03 09:44:34;;;;;;;23.20;11.95;;;;;;;3.03;67.35;101582.55;1639137;85;21230;-58
2020/12/03 09:47:13;;;;;;;26.10;13.48;;;;;;;3.08;67.18;101579.37;1641584;85;21266;-58
2020/12/03 09:49:42;;;;;;;20.12;11.12;;;;;;;3.14;66.87;101575.72;1629019;86;21856;-57
2020/12/03 09:52:12;;;;;;;19.90;12.85;;;;;;;3.20;66.89;101579.91;1627577;86;21259;-59
2020/12/03 09:54:40;;;;;;;22.48;13.25;;;;;;;3.19;66.89;101574.29;1629935;85;22325;-58
2020/12/03 09:57:11;;;;;;;27.87;13.62;;;;;;;3.19;66.98;101571.69;1638803;85;21246;-58
2020/12/03 09:59:40;;;;;;;26.30;14.83;;;;;;;3.18;66.99;101579.08;1650302;84;21204;-59
2020/12/03 10:02:18;;;;;;;25.40;14.43;;;;;;;3.17;67.04;101583.44;1647279;85;21528;-59
2020/12/03 10:05:16;;;;;;;;;;;;;;;3.15;67.08;101587.39;1612933;86;21910;-59
2020/12/03 10:08:02;;;;;;;;;;;;;;;3.15;67.09;101586.08;1678183;83;21196;-58
2020/12/03 10:10:47;;;;;;;28.70;14.15;;;;;;;3.04;67.29;101580.34;1627972;85;20354;-56
2020/12/03 10:13:33;;;;;;;29.95;15.48;;;;;;;2.91;67.60;101569.92;1630977;85;21210;-56
2020/12/03 10:16:03;;;;;;;28.42;15.20;;;;;;;2.89;67.59;101571.69;1628195;85;21338;-57
2020/12/03 10:18:51;;;;;;;28.20;15.98;;;;;;;2.90;67.73;101567.75;1656945;84;21490;-57
2020/12/03 10:21:22;;;;;;;28.77;15.60;;;;;;;2.89;67.80;101562.59;1629161;85;21258;-57
2020/12/03 10:24:09;;;;;;;32.30;18.25;;;;;;;2.81;67.86;101563.26;1626745;85;21226;-57
2020/12/03 10:26:49;;;;;;;34.85;18.57;;;;;;;2.77;67.90;101557.30;1628256;85;21281;-57
2020/12/03 10:29:34;;;;;;;32.15;16.60;;;;;;;2.90;67.88;101559.95;1674849;82;21246;-57
2020/12/03 10:32:14;;;;;;;30.20;17.43;;;;;;;3.02;67.74;101555.30;1629804;85;21263;-58
2020/12/03 10:34:44;;;;;;;55.20;20.88;;;;;;;3.08;67.62;101559.87;1678093;83;21948;-57
2020/12/03 10:37:29;;;;;;;32.33;18.00;;;;;;;3.07;67.67;101554.25;1630112;85;21224;-57
2020/12/03 10:40:18;;;;;;;31.65;16.17;;;;;;;3.08;67.72;101562.92;1628319;85;21243;-57
2020/12/03 10:43:06;;;;;;;34.38;17.37;;;;;;;3.11;67.67;101563.68;1647381;84;22926;-56
2020/12/03 10:45:38;;;;;;;32.10;17.42;;;;;;;3.12;67.58;101560.16;1648170;84;21259;-57
2020/12/03 10:48:14;;;;;;;33.88;18.07;;;;;;;3.10;67.63;101551.56;1660060;84;21225;-58
2020/12/03 10:50:50;;;;;;;36.83;18.55;;;;;;;3.12;67.72;101552.36;1659656;84;21183;-59
2020/12/03 10:53:27;;;;;;;32.48;18.10;;;;;;;3.11;67.67;101547.20;1658018;84;21223;-59
2020/12/03 10:56:01;;;;;;;26.80;16.48;;;;;;;3.10;67.71;101545.06;1654233;84;21245;-59
2020/12/03 10:59:03;;;;;;;32.30;17.35;;;;;;;3.06;67.68;101550.39;1655477;84;21770;-59
2020/12/03 11:01:29;;;;;;;29.52;15.68;;;;;;;3.06;67.61;101547.79;1639344;84;21226;-60
2020/12/03 11:04:08;;;;;;;26.17;15.25;;;;;;;3.21;67.39;101536.08;1656101;84;21215;-61
2020/12/03 11:06:36;;;;;;;28.10;15.93;;;;;;;3.32;67.31;101543.11;1648269;84;21295;-59
2020/12/03 11:09:04;;;;;;;26.15;13.93;;;;;;;3.39;67.17;101544.61;1635783;85;22797;-60
2020/12/03 11:11:36;;;;;;;26.87;15.35;;;;;;;3.41;67.18;101541.95;1635623;85;21527;-60
2020/12/03 11:14:11;;;;;;;28.60;16.82;;;;;;;3.43;67.16;101545.36;1634857;86;21291;-60
2020/12/03 11:16:49;;;;;;;25.55;15.55;;;;;;;3.45;67.08;101543.58;1636178;85;21772;-58
2020/12/03 11:19:18;;;;;;;27.62;17.10;;;;;;;3.44;66.88;101532.77;1598639;85;21187;-59
2020/12/03 11:22:23;;;;;;;30.25;15.55;;;;;;;3.44;66.90;101531.46;1607267;86;21246;-58
2020/12/03 11:25:02;;;;;;;28.25;14.65;;;;;;;3.43;66.83;101531.92;1629568;85;21586;-60
2020/12/03 11:27:30;;;;;;;29.07;15.83;;;;;;;3.40;66.90;101535.07;1631057;85;21572;-59
2020/12/03 11:30:19;;;;;;;29.20;14.43;;;;;;;3.33;66.98;101543.06;1630041;85;21231;-60
2020/12/03 11:32:52;;;;;;;26.80;15.63;;;;;;;3.29;67.16;101541.89;1630234;85;21906;-59
2020/12/03 11:35:27;;;;;;;20.43;13.30;;;;;;;3.31;66.99;101538.79;1632683;85;21271;-59
2020/12/03 11:37:56;;;;;;;;;;;;;;;3.38;66.89;101538.15;1633873;85;21278;-59
2020/12/03 11:40:35;;;;;;;23.47;14.07;;;;;;;3.44;66.81;101534.06;1630850;85;21325;-60
2020/12/03 11:48:34;;;;;;;25.72;13.85;;;;;;;3.56;66.69;101528.45;1760747;77;21597;-59
2020/12/03 11:50:59;;;;;;;31.33;16.93;;;;;;;3.54;66.72;101528.50;1831992;77;21814;-65
2020/12/03 11:53:27;;;;;;;27.25;16.55;;;;;;;3.51;66.69;101523.42;1835033;77;21239;-58
2020/12/03 11:55:56;;;;;;;28.70;17.05;;;;;;;3.52;66.86;101524.27;1800010;77;22095;-58
2020/12/03 11:58:30;;;;;;;28.83;16.75;;;;;;;3.49;66.71;101516.55;1802719;77;21598;-58
2020/12/03 12:01:10;;;;;;;29.52;14.85;;;;;;;3.46;66.71;101520.12;1833127;77;21200;-59
2020/12/03 12:03:40;;;;;;;25.57;14.23;;;;;;;3.42;66.86;101517.20;1815172;77;22379;-59
2020/12/03 12:06:17;;;;;;;27.07;16.00;;;;;;;3.38;66.92;101522.11;1830629;77;22000;-59
2020/12/03 12:08:44;;;;;;;32.53;17.23;;;;;;;3.32;66.96;101519.69;1830391;77;21701;-60
2020/12/03 12:11:15;;;;;;;24.82;15.20;;;;;;;3.29;67.09;101515.88;1831876;77;21237;-59
2020/12/03 12:13:38;;;;;;;25.48;13.62;;;;;;;3.33;67.02;101513.60;1807357;77;21198;-61